Time;durP1;ratioP1;P1;durP2;ratioP2;P2;SDS_P1;SDS_P2;PMS_P1;PMS_P2;Temp;Humidity;BMP_temperature;BMP_pressure;BME280_temperature;BME280_humidity;BME280_pressure;Samples;Min_cycle;Max_cycle;Signal;HPM_P1;HPM_P2
2021/01/22 00:02:07;;;;;;;1.63;1.27;;;4.90;99.90;;;;;;5029604;28;20033;-58
2021/01/22 00:04:33;;;;;;;2.63;0.98;;;4.90;99.90;;;;;;5011577;28;20030;-58
2021/01/22 00:06:58;;;;;;;2.95;0.95;;;4.90;99.90;;;;;;5029494;28;20021;-60
2021/01/22 00:09:24;;;;;;;3.22;1.38;;;4.90;99.90;;;;;;5027158;28;20461;-59
2021/01/22 00:11:50;;;;;;;4.35;1.30;;;4.90;99.90;;;;;;5024227;28;20029;-58
2021/01/22 00:14:16;;;;;;;2.78;1.20;;;4.90;99.90;;;;;;5026533;28;20626;-58
2021/01/22 00:16:41;;;;;;;1.95;1.00;;;4.90;99.90;;;;;;5028884;28;20028;-57
2021/01/22 00:19:07;;;;;;;5.97;1.65;;;4.90;99.90;;;;;;5029196;28;20079;-60
2021/01/22 00:21:33;;;;;;;5.65;1.30;;;4.90;99.90;;;;;;5027664;28;20033;-59
2021/01/22 00:23:58;;;;;;;2.72;1.75;;;4.90;99.90;;;;;;5028688;28;20025;-60
2021/01/22 00:26:24;;;;;;;4.82;1.45;;;4.90;99.90;;;;;;5028280;28;20789;-58
2021/01/22 00:28:50;;;;;;;2.05;1.20;;;5.00;99.90;;;;;;5028773;28;20029;-57
2021/01/22 00:31:15;;;;;;;2.72;1.55;;;5.00;99.90;;;;;;5028623;28;20121;-62
2021/01/22 00:33:41;;;;;;;5.75;1.45;;;5.00;99.90;;;;;;5028447;28;20440;-60
2021/01/22 00:36:07;;;;;;;3.15;1.48;;;5.00;99.90;;;;;;5027920;28;20491;-60
2021/01/22 00:38:32;;;;;;;1.58;1.48;;;5.00;99.90;;;;;;5028243;28;20045;-60
2021/01/22 00:40:58;;;;;;;8.40;2.40;;;5.00;99.90;;;;;;5023529;28;20060;-60
2021/01/22 00:43:24;;;;;;;3.47;1.70;;;5.10;99.90;;;;;;5009618;28;20095;-60
2021/01/22 00:45:50;;;;;;;4.72;1.58;;;5.10;99.90;;;;;;5009021;28;20022;-56
2021/01/22 00:48:15;;;;;;;1.48;1.25;;;5.10;99.90;;;;;;5029649;28;20068;-59
2021/01/22 00:50:41;;;;;;;2.78;1.58;;;5.10;99.90;;;;;;5014315;28;20068;-60
2021/01/22 00:53:06;;;;;;;3.38;2.00;;;5.10;99.90;;;;;;5009700;28;20048;-57
2021/01/22 00:55:32;;;;;;;2.88;1.67;;;5.20;99.90;;;;;;5015528;28;20038;-59
2021/01/22 00:57:58;;;;;;;2.88;1.73;;;5.30;99.90;;;;;;5010055;28;20068;-59
2021/01/22 01:00:23;;;;;;;5.70;2.50;;;5.30;99.90;;;;;;5020464;28;20037;-60
2021/01/22 01:02:49;;;;;;;3.10;1.75;;;5.30;99.90;;;;;;5022417;28;20033;-60
2021/01/22 01:05:15;;;;;;;3.90;1.98;;;5.40;99.90;;;;;;5023365;28;20381;-58
2021/01/22 01:07:40;;;;;;;3.22;1.73;;;5.40;99.90;;;;;;5010007;28;20499;-61
2021/01/22 01:10:07;;;;;;;6.88;2.00;;;5.40;99.90;;;;;;5018453;28;20751;-59
2021/01/22 01:12:33;;;;;;;2.03;1.25;;;5.50;99.90;;;;;;5028601;28;20164;-60
2021/01/22 01:14:59;;;;;;;3.92;1.85;;;5.50;99.90;;;;;;5026331;28;20093;-58
2021/01/22 01:17:24;;;;;;;2.47;1.55;;;5.50;99.90;;;;;;5027076;28;20164;-61
2021/01/22 01:19:50;;;;;;;2.85;1.52;;;5.50;99.90;;;;;;5031994;28;20096;-60
2021/01/22 01:22:16;;;;;;;7.60;2.47;;;5.60;99.90;;;;;;5026039;28;20645;-58
2021/01/22 01:24:41;;;;;;;2.33;1.77;;;5.60;99.90;;;;;;5019251;28;20539;-57
2021/01/22 01:27:07;;;;;;;2.20;2.00;;;5.60;99.90;;;;;;5021133;28;20025;-59
2021/01/22 01:29:32;;;;;;;3.67;1.73;;;5.70;99.90;;;;;;5025989;28;20072;-60
2021/01/22 01:31:58;;;;;;;4.30;1.75;;;5.70;99.90;;;;;;5025166;28;20025;-59
2021/01/22 01:34:23;;;;;;;3.53;1.77;;;5.80;99.90;;;;;;5015493;28;20034;-62
2021/01/22 01:36:49;;;;;;;3.13;1.60;;;5.80;99.90;;;;;;5019429;28;20041;-60
2021/01/22 01:39:15;;;;;;;1.95;1.80;;;5.90;99.90;;;;;;5017036;28;20033;-60
2021/01/22 01:41:40;;;;;;;2.75;1.60;;;5.90;99.90;;;;;;5015768;28;20029;-61
2021/01/22 01:44:06;;;;;;;2.90;1.77;;;5.90;99.90;;;;;;5013129;28;20026;-60
2021/01/22 01:46:33;;;;;;;2.25;1.85;;;6.00;99.90;;;;;;5016906;28;20370;-62
2021/01/22 01:48:59;;;;;;;2.40;1.92;;;6.00;99.90;;;;;;5015128;28;20050;-60
2021/01/22 01:51:25;;;;;;;4.28;1.90;;;6.00;99.90;;;;;;5015622;28;20479;-58
2021/01/22 01:53:51;;;;;;;3.88;1.88;;;6.10;99.90;;;;;;5015935;28;20396;-61
2021/01/22 01:56:16;;;;;;;1.67;1.40;;;6.10;99.90;;;;;;5012631;28;20018;-60
2021/01/22 01:58:42;;;;;;;2.08;1.35;;;6.20;99.90;;;;;;5017116;28;20830;-59
2021/01/22 02:01:10;;;;;;;1.35;1.20;;;6.30;99.90;;;;;;5016210;28;20490;-60
2021/01/22 02:03:36;;;;;;;1.80;1.33;;;6.40;99.90;;;;;;5011180;28;20527;-61
2021/01/22 02:06:04;;;;;;;1.20;1.10;;;6.40;99.90;;;;;;5026782;28;20025;-61
2021/01/22 02:08:30;;;;;;;2.35;1.10;;;6.50;99.90;;;;;;5030489;28;20121;-60
2021/01/22 02:10:59;;;;;;;1.08;0.98;;;6.60;99.90;;;;;;5030116;28;20108;-62
2021/01/22 02:13:25;;;;;;;1.55;1.13;;;6.70;99.90;;;;;;5027340;28;20438;-60
2021/01/22 02:15:51;;;;;;;1.60;1.25;;;6.80;99.90;;;;;;5029181;28;20379;-60
2021/01/22 02:18:17;;;;;;;1.25;1.15;;;6.90;99.90;;;;;;5030719;28;20109;-60
2021/01/22 02:20:56;;;;;;;1.13;1.02;;;6.90;99.90;;;;;;5029848;28;20032;-61
2021/01/22 02:23:25;;;;;;;2.42;1.10;;;7.00;99.90;;;;;;5024245;28;20113;-61
2021/01/22 02:25:56;;;;;;;2.35;1.00;;;7.00;99.90;;;;;;5026885;28;22288;-62
2021/01/22 02:28:22;;;;;;;2.42;1.20;;;7.00;99.90;;;;;;5030857;28;20666;-62
2021/01/22 02:30:49;;;;;;;1.88;1.10;;;7.00;99.90;;;;;;5030967;28;20060;-62
2021/01/22 02:33:18;;;;;;;1.98;0.98;;;7.10;99.90;;;;;;5031084;28;20020;-61
2021/01/22 02:35:44;;;;;;;1.42;1.00;;;7.10;99.90;;;;;;5028438;28;20484;-63
2021/01/22 02:38:11;;;;;;;2.72;1.15;;;7.10;99.90;;;;;;5029138;28;20017;-61
2021/01/22 02:40:41;;;;;;;1.10;1.00;;;7.10;99.90;;;;;;5030104;28;20056;-62
2021/01/22 02:43:09;;;;;;;1.70;1.00;;;7.20;99.90;;;;;;5030733;28;20104;-60
2021/01/22 02:45:35;;;;;;;1.98;0.82;;;7.20;99.90;;;;;;5030465;28;20021;-60
2021/01/22 02:48:00;;;;;;;0.90;0.90;;;7.20;99.90;;;;;;5029861;28;20075;-61
2021/01/22 02:50:34;;;;;;;2.03;1.08;;;7.20;99.90;;;;;;5030119;28;20045;-62
2021/01/22 02:53:04;;;;;;;0.90;0.80;;;7.20;99.90;;;;;;5029376;28;20081;-62
2021/01/22 02:55:32;;;;;;;3.08;1.15;;;7.20;99.90;;;;;;5028822;28;20444;-62
2021/01/22 02:58:05;;;;;;;1.55;1.20;;;7.20;99.90;;;;;;5030158;28;20507;-61
2021/01/22 03:00:36;;;;;;;3.05;0.90;;;7.20;99.90;;;;;;5030415;28;20014;-62
2021/01/22 03:03:38;;;;;;;1.77;1.05;;;7.20;99.90;;;;;;5029895;28;20017;-61
2021/01/22 03:06:05;;;;;;;1.83;0.95;;;7.20;99.90;;;;;;5030344;28;20057;-62
2021/01/22 03:08:34;;;;;;;1.13;0.90;;;7.20;99.90;;;;;;5030441;28;20060;-61
2021/01/22 03:11:01;;;;;;;1.02;0.73;;;7.20;99.90;;;;;;5030282;28;20038;-59
2021/01/22 03:13:27;;;;;;;1.05;0.85;;;7.20;99.90;;;;;;5029027;28;20415;-60
2021/01/22 03:15:53;;;;;;;1.13;0.80;;;7.30;99.90;;;;;;5029029;28;20021;-60
2021/01/22 03:18:19;;;;;;;2.47;1.10;;;7.30;99.90;;;;;;5029277;28;20026;-60
2021/01/22 03:20:47;;;;;;;1.27;1.17;;;7.30;99.90;;;;;;5029248;28;20053;-62
2021/01/22 03:23:15;;;;;;;1.17;0.80;;;7.30;99.90;;;;;;5027249;28;20438;-61
2021/01/22 03:25:41;;;;;;;3.10;1.20;;;7.30;99.90;;;;;;5024554;28;20128;-61
2021/01/22 03:28:09;;;;;;;1.45;0.93;;;7.30;99.90;;;;;;5029585;28;20026;-61
2021/01/22 03:30:35;;;;;;;1.02;0.75;;;7.30;99.90;;;;;;5029145;28;20679;-61
2021/01/22 03:33:01;;;;;;;0.80;0.80;;;7.30;99.90;;;;;;5028237;28;20005;-60
2021/01/22 03:35:28;;;;;;;1.77;1.00;;;7.30;99.90;;;;;;5029225;28;20100;-60
2021/01/22 03:37:54;;;;;;;3.53;1.05;;;7.30;99.90;;;;;;5027979;28;20398;-61
2021/01/22 03:40:20;;;;;;;0.75;0.75;;;7.30;99.90;;;;;;5027956;28;20017;-59
2021/01/22 03:42:46;;;;;;;0.50;0.50;;;7.30;99.90;;;;;;5029235;28;20109;-61
2021/01/22 03:45:14;;;;;;;1.20;0.80;;;7.30;99.90;;;;;;5029122;28;20052;-60
2021/01/22 03:47:39;;;;;;;1.58;0.73;;;7.30;99.90;;;;;;5028914;28;20030;-59
2021/01/22 03:50:06;;;;;;;1.45;0.80;;;7.30;99.90;;;;;;5028975;28;20098;-61
2021/01/22 03:52:31;;;;;;;0.93;0.60;;;7.40;99.90;;;;;;5028686;28;20057;-61
2021/01/22 03:54:57;;;;;;;0.93;0.63;;;7.40;99.90;;;;;;5029032;28;20053;-60
2021/01/22 03:57:22;;;;;;;0.98;0.63;;;7.40;99.90;;;;;;5029012;28;20468;-61
2021/01/22 03:59:48;;;;;;;1.02;0.55;;;7.40;99.90;;;;;;5028634;28;20025;-60
2021/01/22 04:02:13;;;;;;;1.45;0.80;;;7.50;99.90;;;;;;5028058;28;20032;-61
2021/01/22 04:04:39;;;;;;;1.00;0.90;;;7.50;99.90;;;;;;5028804;28;20057;-60
2021/01/22 04:07:05;;;;;;;2.17;0.70;;;7.50;99.90;;;;;;5028815;28;20048;-60
2021/01/22 04:09:30;;;;;;;0.80;0.80;;;7.50;99.90;;;;;;5028663;28;20030;-61
2021/01/22 04:11:57;;;;;;;1.63;0.82;;;7.50;99.90;;;;;;5082640;22;20037;-57
2021/01/22 04:14:23;;;;;;;2.28;0.70;;;7.50;99.90;;;;;;5078186;28;20020;-58
2021/01/22 04:16:49;;;;;;;0.70;0.70;;;7.50;99.90;;;;;;5074604;28;20021;-56
2021/01/22 04:19:15;;;;;;;2.38;0.75;;;7.50;99.90;;;;;;5075012;28;20020;-60
2021/01/22 04:21:40;;;;;;;1.67;0.70;;;7.60;99.90;;;;;;5068201;28;20036;-61
2021/01/22 04:24:06;;;;;;;1.65;0.80;;;7.60;99.90;;;;;;5067474;28;20108;-61
2021/01/22 04:26:32;;;;;;;1.15;0.70;;;7.70;99.90;;;;;;5066060;28;20115;-59
2021/01/22 04:28:57;;;;;;;1.25;0.10;;;7.50;99.90;;;;;;5068063;28;20028;-60
2021/01/22 04:31:23;;;;;;;1.02;0.30;;;7.00;99.90;;;;;;5068452;28;20479;-59
2021/01/22 04:33:49;;;;;;;0.20;0.10;;;6.60;99.90;;;;;;5068778;28;20118;-61
2021/01/22 04:36:16;;;;;;;0.13;0.13;;;6.40;99.90;;;;;;5067971;28;20545;-62
2021/01/22 04:38:41;;;;;;;0.50;0.30;;;6.20;99.90;;;;;;5068266;28;20162;-59
2021/01/22 04:41:07;;;;;;;0.40;0.30;;;6.00;99.90;;;;;;5068215;28;20107;-61
2021/01/22 04:43:32;;;;;;;0.70;0.30;;;5.80;99.90;;;;;;5067277;28;20041;-60
2021/01/22 04:46:01;;;;;;;0.75;0.70;;;5.60;99.90;;;;;;5066865;28;20200;-59
2021/01/22 04:48:28;;;;;;;0.40;0.40;;;5.50;99.90;;;;;;5068244;28;20028;-61
2021/01/22 04:50:58;;;;;;;1.25;0.50;;;5.20;99.90;;;;;;5068042;28;20021;-59
2021/01/22 04:53:27;;;;;;;0.75;0.73;;;4.90;99.90;;;;;;5067868;28;20103;-60
2021/01/22 04:55:54;;;;;;;0.40;0.40;;;4.60;99.90;;;;;;5066447;28;20028;-60
2021/01/22 04:58:21;;;;;;;0.30;0.30;;;4.40;99.90;;;;;;5067861;28;20024;-60
2021/01/22 05:00:48;;;;;;;1.60;0.80;;;4.20;99.90;;;;;;5067027;28;20112;-60
2021/01/22 05:03:14;;;;;;;0.82;0.82;;;4.10;99.90;;;;;;5067801;28;20510;-60
2021/01/22 05:05:40;;;;;;;1.35;1.05;;;4.00;99.90;;;;;;5067597;28;20028;-59
2021/01/22 05:08:06;;;;;;;2.17;1.30;;;3.90;99.90;;;;;;5067516;28;20120;-60
2021/01/22 05:10:31;;;;;;;2.25;1.52;;;3.80;99.90;;;;;;5067496;28;20099;-59
2021/01/22 05:12:57;;;;;;;2.10;1.55;;;3.70;99.90;;;;;;5067711;28;20024;-58
2021/01/22 05:15:24;;;;;;;3.40;1.70;;;3.60;99.90;;;;;;5065970;28;20513;-58
2021/01/22 05:17:57;;;;;;;2.42;1.58;;;3.60;99.90;;;;;;5066506;28;20020;-60
2021/01/22 05:20:29;;;;;;;2.95;1.42;;;3.50;99.90;;;;;;5067517;28;20013;-58
2021/01/22 05:22:56;;;;;;;1.33;1.00;;;3.40;99.90;;;;;;5063956;28;20052;-60
2021/01/22 05:25:22;;;;;;;0.85;0.85;;;3.30;99.90;;;;;;5060457;28;20024;-60
2021/01/22 05:27:49;;;;;;;0.60;0.60;;;3.20;99.90;;;;;;5066385;28;20082;-60
2021/01/22 05:30:16;;;;;;;1.00;0.80;;;3.20;99.90;;;;;;5067748;28;20035;-57
2021/01/22 05:32:42;;;;;;;1.15;0.93;;;3.10;99.90;;;;;;5066313;28;20137;-60
2021/01/22 05:35:08;;;;;;;0.57;0.57;;;3.20;99.90;;;;;;5067531;28;20104;-60
2021/01/22 05:37:49;;;;;;;0.57;0.57;;;3.10;99.90;;;;;;5067357;28;20593;-58
2021/01/22 05:40:16;;;;;;;1.02;0.60;;;3.10;99.90;;;;;;5050270;28;20575;-60
2021/01/22 05:42:46;;;;;;;0.60;0.60;;;3.10;99.90;;;;;;5061727;28;20119;-60
2021/01/22 05:45:12;;;;;;;0.70;0.70;;;3.10;99.90;;;;;;5065927;28;20156;-57
2021/01/22 05:47:39;;;;;;;1.25;0.85;;;3.00;99.90;;;;;;5067583;28;20024;-60
2021/01/22 05:50:05;;;;;;;1.30;0.90;;;3.00;99.90;;;;;;5067000;28;20017;-60
2021/01/22 05:52:31;;;;;;;0.90;0.90;;;3.00;99.90;;;;;;5067413;28;20063;-60
2021/01/22 05:54:56;;;;;;;3.28;1.25;;;3.00;99.90;;;;;;5066921;28;20017;-58
2021/01/22 05:57:24;;;;;;;1.40;1.02;;;3.00;99.90;;;;;;5068264;28;20490;-59
2021/01/22 06:00:10;;;;;;;1.67;1.25;;;3.00;99.90;;;;;;5071033;28;20025;-57
2021/01/22 06:02:36;;;;;;;1.30;1.20;;;3.00;99.90;;;;;;5071087;28;20021;-57
2021/01/22 06:05:09;;;;;;;1.88;1.45;;;3.00;99.90;;;;;;5070626;28;20035;-58
2021/01/22 06:07:36;;;;;;;1.58;1.48;;;3.00;99.90;;;;;;5070972;28;20029;-58
2021/01/22 06:10:14;;;;;;;1.63;1.52;;;3.00;99.90;;;;;;5069071;28;20056;-59
2021/01/22 06:12:46;;;;;;;2.38;1.67;;;3.00;99.90;;;;;;5069494;28;20074;-59
2021/01/22 06:15:13;;;;;;;3.03;2.17;;;3.00;99.90;;;;;;5068693;28;20043;-59
2021/01/22 06:17:44;;;;;;;3.88;2.25;;;3.00;99.90;;;;;;5070941;28;20481;-60
2021/01/22 06:20:14;;;;;;;2.78;2.15;;;3.00;99.90;;;;;;5070411;28;20083;-59
2021/01/22 06:22:46;;;;;;;3.72;2.08;;;3.00;99.90;;;;;;5068853;28;21392;-58
2021/01/22 06:25:14;;;;;;;2.90;1.90;;;3.00;99.90;;;;;;5069185;28;20032;-59
2021/01/22 06:27:41;;;;;;;2.92;2.38;;;3.00;99.90;;;;;;5068878;28;20067;-59
2021/01/22 06:30:08;;;;;;;4.32;2.75;;;3.00;99.90;;;;;;5070243;28;20107;-59
2021/01/22 06:32:36;;;;;;;3.65;2.80;;;3.00;99.90;;;;;;5070532;28;20028;-58
2021/01/22 06:35:02;;;;;;;4.60;2.75;;;3.00;99.90;;;;;;5070193;28;20009;-59
2021/01/22 06:37:29;;;;;;;4.90;2.70;;;3.00;99.90;;;;;;5070176;28;20699;-59
2021/01/22 06:39:56;;;;;;;4.28;2.95;;;3.00;99.90;;;;;;5070428;28;20130;-59
2021/01/22 06:42:23;;;;;;;3.60;3.13;;;3.10;99.90;;;;;;5068813;28;20078;-58
2021/01/22 06:44:48;;;;;;;4.15;3.15;;;3.10;99.90;;;;;;5069698;28;20024;-58
2021/01/22 06:47:14;;;;;;;2.40;2.20;;;3.00;99.90;;;;;;5068863;28;20506;-60
2021/01/22 06:49:40;;;;;;;3.08;2.42;;;3.00;99.90;;;;;;5064821;28;20081;-59
2021/01/22 06:52:12;;;;;;;4.85;2.60;;;3.10;99.90;;;;;;5054904;28;20040;-56
2021/01/22 06:54:56;;;;;;;4.18;2.08;;;3.00;99.90;;;;;;5052160;28;20487;-61
2021/01/22 06:57:22;;;;;;;2.92;2.08;;;3.00;99.90;;;;;;5050312;28;20028;-57
2021/01/22 06:59:47;;;;;;;1.63;1.50;;;3.00;99.90;;;;;;5048947;28;20029;-59
2021/01/22 07:02:31;;;;;;;2.50;1.58;;;2.90;99.90;;;;;;5049384;28;20028;-57
2021/01/22 07:04:57;;;;;;;2.60;2.00;;;2.90;99.90;;;;;;5053657;28;20029;-60
2021/01/22 07:07:47;;;;;;;4.78;2.42;;;2.90;99.90;;;;;;5050499;28;20502;-58
2021/01/22 07:10:14;;;;;;;5.50;2.65;;;2.90;99.90;;;;;;5050973;28;20036;-60
2021/01/22 07:12:45;;;;;;;2.90;2.50;;;2.90;99.90;;;;;;5049158;28;20039;-58
2021/01/22 07:15:29;;;;;;;3.95;2.80;;;2.90;99.90;;;;;;5050361;28;20099;-60
2021/01/22 07:17:59;;;;;;;5.07;2.60;;;2.90;99.90;;;;;;5049753;28;20104;-59
2021/01/22 07:20:28;;;;;;;3.35;2.33;;;2.80;99.90;;;;;;5056817;28;20731;-59
2021/01/22 07:22:55;;;;;;;4.50;2.67;;;2.80;99.90;;;;;;5052458;28;20040;-57
2021/01/22 07:25:36;;;;;;;2.35;2.13;;;2.80;99.90;;;;;;5049642;28;20089;-58
2021/01/22 07:28:20;;;;;;;3.70;3.00;;;2.80;99.90;;;;;;5048742;28;20028;-59
2021/01/22 07:30:46;;;;;;;3.60;2.85;;;2.80;99.90;;;;;;5051165;28;20023;-57
2021/01/22 07:33:29;;;;;;;6.63;3.22;;;2.80;99.90;;;;;;5051992;28;20017;-60
2021/01/22 07:36:13;;;;;;;3.92;3.25;;;2.90;99.90;;;;;;5064458;28;20048;-57
2021/01/22 07:38:40;;;;;;;6.22;3.58;;;2.90;99.90;;;;;;5069261;28;20028;-60
2021/01/22 07:41:07;;;;;;;5.03;4.18;;;2.90;99.90;;;;;;5069173;28;20017;-59
2021/01/22 07:43:33;;;;;;;7.07;4.05;;;3.00;99.90;;;;;;5068960;28;20475;-60
2021/01/22 07:46:12;;;;;;;4.90;3.67;;;3.00;99.90;;;;;;5068589;28;20113;-59
2021/01/22 07:48:39;;;;;;;5.07;4.28;;;3.00;99.90;;;;;;5068753;28;20112;-60
2021/01/22 07:51:36;;;;;;;6.95;4.57;;;3.10;99.90;;;;;;5067292;28;20437;-60
2021/01/22 07:54:03;;;;;;;10.95;5.32;;;3.10;99.90;;;;;;5068855;28;20036;-59
2021/01/22 07:56:36;;;;;;;7.68;5.25;;;3.10;99.90;;;;;;5068459;28;20475;-58
2021/01/22 07:59:02;;;;;;;6.95;5.60;;;3.10;99.90;;;;;;5050782;28;20024;-59
2021/01/22 08:01:28;;;;;;;10.38;6.55;;;3.10;99.90;;;;;;5067794;28;20052;-58
2021/01/22 08:03:53;;;;;;;10.52;5.97;;;3.10;99.90;;;;;;5068875;28;20481;-59
2021/01/22 08:06:19;;;;;;;8.75;6.53;;;3.10;99.90;;;;;;5055952;28;20025;-58
2021/01/22 08:08:45;;;;;;;8.48;6.22;;;3.10;99.90;;;;;;5049542;28;20021;-60
2021/01/22 08:11:25;;;;;;;11.35;6.90;;;3.20;99.90;;;;;;5055298;28;20514;-59
2021/01/22 08:13:52;;;;;;;9.55;6.90;;;3.20;99.90;;;;;;5050688;28;20553;-60
2021/01/22 08:16:22;;;;;;;10.32;6.72;;;3.20;99.90;;;;;;5049313;28;20047;-59
2021/01/22 08:18:47;;;;;;;9.98;6.45;;;3.20;99.90;;;;;;5054123;28;20437;-59
2021/01/22 08:21:13;;;;;;;10.35;7.07;;;3.20;99.90;;;;;;5052534;28;20442;-58
2021/01/22 08:23:42;;;;;;;12.25;6.63;;;3.10;99.90;;;;;;5050211;28;20036;-60
2021/01/22 08:26:09;;;;;;;8.98;6.75;;;3.10;99.90;;;;;;5047693;28;20029;-57
2021/01/22 08:28:36;;;;;;;10.57;7.05;;;3.10;99.90;;;;;;5050101;28;20731;-59
2021/01/22 08:31:02;;;;;;;9.73;6.93;;;3.10;99.90;;;;;;5052068;28;20020;-59
2021/01/22 08:33:28;;;;;;;13.80;8.07;;;3.20;99.90;;;;;;5049737;28;20017;-59
2021/01/22 08:35:53;;;;;;;8.43;7.50;;;3.20;99.90;;;;;;5061731;28;20021;-58
2021/01/22 08:38:19;;;;;;;10.32;8.43;;;3.20;99.90;;;;;;5068043;28;20093;-58
2021/01/22 08:40:45;;;;;;;13.65;7.30;;;3.20;99.90;;;;;;5068082;28;20028;-60
2021/01/22 08:43:12;;;;;;;11.40;7.45;;;3.20;99.90;;;;;;5067924;28;20025;-59
2021/01/22 08:45:39;;;;;;;9.13;6.97;;;3.20;99.90;;;;;;5068114;28;20549;-59
2021/01/22 08:48:05;;;;;;;10.68;6.85;;;3.20;99.90;;;;;;5067822;28;20491;-59
2021/01/22 08:50:30;;;;;;;10.73;6.43;;;3.20;99.90;;;;;;5065821;28;20025;-61
2021/01/22 08:53:08;;;;;;;15.77;7.38;;;3.20;99.90;;;;;;5068181;28;20028;-61
2021/01/22 08:55:34;;;;;;;9.90;7.88;;;3.30;99.90;;;;;;5063239;28;20028;-59
2021/01/22 08:58:09;;;;;;;11.40;7.68;;;3.40;99.90;;;;;;5063727;28;20027;-59
2021/01/22 09:00:35;;;;;;;9.02;6.85;;;3.50;99.90;;;;;;5056116;28;20487;-60
2021/01/22 09:03:00;;;;;;;11.75;7.05;;;3.60;99.90;;;;;;5066357;28;20050;-60
2021/01/22 09:05:26;;;;;;;12.63;7.25;;;3.60;99.90;;;;;;5067741;28;20096;-57
2021/01/22 09:08:09;;;;;;;12.05;7.65;;;3.60;99.90;;;;;;5058868;28;20035;-59
2021/01/22 09:10:39;;;;;;;12.77;7.80;;;3.60;99.90;;;;;;5064719;28;20093;-61
2021/01/22 09:13:09;;;;;;;10.52;7.20;;;3.60;99.90;;;;;;5061240;28;20066;-56
2021/01/22 09:15:34;;;;;;;9.25;7.47;;;3.60;99.90;;;;;;5064340;28;20028;-59
2021/01/22 09:18:00;;;;;;;10.40;7.68;;;3.60;99.90;;;;;;5063804;28;20025;-58
2021/01/22 09:20:27;;;;;;;9.75;7.15;;;3.60;99.90;;;;;;5062756;28;20104;-60
2021/01/22 09:22:54;;;;;;;9.05;7.47;;;3.60;99.90;;;;;;5067062;28;20043;-59
2021/01/22 09:25:26;;;;;;;12.70;7.82;;;3.60;99.90;;;;;;5067673;28;20604;-59
2021/01/22 09:27:52;;;;;;;11.00;7.68;;;3.60;99.90;;;;;;5065671;28;20024;-60
2021/01/22 09:30:20;;;;;;;12.48;7.75;;;3.60;99.90;;;;;;5062837;28;20683;-61
2021/01/22 09:32:47;;;;;;;12.18;7.38;;;3.60;99.90;;;;;;5068232;28;20035;-60
2021/01/22 09:35:13;;;;;;;10.02;7.43;;;3.60;99.90;;;;;;5071251;28;20055;-57
2021/01/22 09:37:38;;;;;;;11.52;7.18;;;3.60;99.90;;;;;;5057918;28;20108;-58
2021/01/22 09:40:06;;;;;;;10.73;6.45;;;3.60;99.90;;;;;;5063213;28;20099;-57
2021/01/22 09:42:31;;;;;;;16.67;8.23;;;3.60;99.90;;;;;;5071247;28;20714;-58
2021/01/22 09:44:57;;;;;;;10.30;8.07;;;3.60;99.90;;;;;;5057494;28;20048;-58
2021/01/22 09:47:23;;;;;;;12.88;6.82;;;3.70;99.90;;;;;;5071159;28;20021;-59
2021/01/22 09:49:49;;;;;;;10.32;7.75;;;3.70;99.90;;;;;;5070855;28;20043;-59
2021/01/22 09:52:14;;;;;;;11.02;7.60;;;3.70;99.90;;;;;;5071397;28;20486;-60
2021/01/22 09:54:41;;;;;;;11.30;7.90;;;3.80;99.90;;;;;;5068583;28;20033;-58
2021/01/22 09:57:07;;;;;;;13.57;8.13;;;3.80;99.90;;;;;;5070953;28;20008;-59
2021/01/22 09:59:33;;;;;;;10.52;8.38;;;3.80;99.90;;;;;;5070817;28;20615;-58
2021/01/22 10:01:58;;;;;;;11.95;7.97;;;3.90;99.90;;;;;;5070867;28;20099;-60
2021/01/22 10:04:24;;;;;;;11.55;8.05;;;3.90;99.90;;;;;;5063946;28;20029;-60
2021/01/22 10:06:50;;;;;;;11.65;8.05;;;3.90;99.90;;;;;;5068867;28;20043;-59
2021/01/22 10:09:16;;;;;;;13.55;7.47;;;3.90;99.90;;;;;;5070886;28;20506;-58
2021/01/22 10:11:42;;;;;;;11.93;7.20;;;4.00;99.90;;;;;;5093237;22;20041;-61
2021/01/22 10:14:08;;;;;;;11.13;7.15;;;4.00;99.90;;;;;;5084129;28;20035;-61
2021/01/22 10:16:34;;;;;;;7.30;6.25;;;4.00;99.90;;;;;;5059999;28;20021;-62
2021/01/22 10:19:00;;;;;;;9.85;7.57;;;4.10;99.90;;;;;;5057644;28;20021;-60
2021/01/22 10:21:26;;;;;;;11.48;7.13;;;4.10;99.90;;;;;;5059000;28;20017;-61
2021/01/22 10:23:53;;;;;;;12.13;7.65;;;4.20;99.90;;;;;;5059066;28;20036;-61
2021/01/22 10:26:21;;;;;;;10.02;7.03;;;4.20;99.90;;;;;;5052213;28;20076;-61
2021/01/22 10:28:47;;;;;;;14.95;7.75;;;4.30;99.90;;;;;;5063502;28;20445;-61
2021/01/22 10:31:13;;;;;;;13.75;8.32;;;4.40;99.90;;;;;;5057494;28;20047;-60
2021/01/22 10:33:39;;;;;;;13.82;8.05;;;4.50;99.90;;;;;;5070326;28;20020;-62
2021/01/22 10:36:06;;;;;;;9.65;7.55;;;4.60;99.90;;;;;;5062176;28;20027;-61
2021/01/22 10:38:32;;;;;;;10.10;7.15;;;4.60;99.90;;;;;;5065729;28;20024;-60
2021/01/22 10:40:58;;;;;;;11.07;7.25;;;4.70;99.90;;;;;;5069623;28;20092;-62
2021/01/22 10:43:25;;;;;;;10.95;7.35;;;4.70;99.90;;;;;;5070589;28;20083;-59
2021/01/22 10:45:51;;;;;;;7.40;6.55;;;4.80;99.90;;;;;;5069210;28;20028;-57
2021/01/22 10:48:18;;;;;;;7.40;5.97;;;4.80;99.90;;;;;;5070114;28;20021;-60
2021/01/22 10:50:44;;;;;;;8.07;6.28;;;4.80;99.90;;;;;;5069347;28;20532;-60
2021/01/22 10:53:10;;;;;;;9.65;7.10;;;4.80;99.90;;;;;;5068491;28;20017;-61
2021/01/22 10:55:35;;;;;;;10.35;6.82;;;4.80;99.90;;;;;;5069284;28;20031;-59
2021/01/22 10:58:01;;;;;;;9.45;6.63;;;4.80;99.90;;;;;;5069517;28;20021;-58
2021/01/22 11:00:27;;;;;;;9.77;6.68;;;4.80;99.90;;;;;;5068544;28;20386;-59
2021/01/22 11:02:52;;;;;;;8.40;7.03;;;4.80;99.90;;;;;;5067327;28;20429;-59
2021/01/22 11:05:18;;;;;;;8.48;5.95;;;4.80;99.90;;;;;;5069265;28;20009;-59
2021/01/22 11:07:44;;;;;;;7.18;5.35;;;4.80;99.90;;;;;;5069243;28;20009;-59
2021/01/22 11:10:10;;;;;;;10.07;5.63;;;4.80;99.90;;;;;;5069741;28;20025;-57
2021/01/22 11:12:35;;;;;;;8.68;5.60;;;4.70;99.90;;;;;;5068871;28;20410;-59
2021/01/22 11:15:01;;;;;;;9.85;4.78;;;4.70;99.90;;;;;;5069388;28;20020;-58
2021/01/22 11:17:27;;;;;;;9.85;5.22;;;4.70;99.90;;;;;;5069852;28;20039;-59
2021/01/22 11:19:52;;;;;;;7.55;4.60;;;4.70;99.90;;;;;;5069169;28;20095;-60
2021/01/22 11:22:18;;;;;;;6.40;5.22;;;4.80;99.90;;;;;;5065297;28;20159;-58
2021/01/22 11:24:44;;;;;;;8.98;5.15;;;4.70;99.90;;;;;;5067962;28;20016;-59
2021/01/22 11:27:10;;;;;;;6.50;4.75;;;4.80;99.90;;;;;;5067587;28;20503;-60
2021/01/22 11:29:37;;;;;;;7.47;4.85;;;4.80;99.90;;;;;;5064657;28;20021;-58
2021/01/22 11:32:03;;;;;;;8.23;4.47;;;4.90;99.90;;;;;;5052757;28;20017;-58
2021/01/22 11:34:29;;;;;;;6.35;4.15;;;4.90;99.90;;;;;;5060779;28;20108;-58
2021/01/22 11:36:54;;;;;;;11.50;4.28;;;4.90;99.90;;;;;;5057076;28;20751;-60
2021/01/22 11:39:20;;;;;;;7.32;4.05;;;4.90;99.90;;;;;;5063876;28;20470;-59
2021/01/22 11:41:45;;;;;;;9.30;4.47;;;4.90;99.90;;;;;;5049817;28;20520;-60
2021/01/22 11:44:11;;;;;;;12.40;4.13;;;4.80;99.90;;;;;;5051500;28;20021;-59
2021/01/22 11:46:37;;;;;;;6.88;4.55;;;4.80;99.90;;;;;;5062973;28;20032;-59
2021/01/22 11:49:03;;;;;;;8.55;4.00;;;4.80;99.90;;;;;;5059004;28;20059;-60
2021/01/22 11:51:28;;;;;;;4.60;3.30;;;4.80;99.90;;;;;;5067519;28;20017;-60
2021/01/22 11:53:54;;;;;;;5.75;3.92;;;4.90;99.90;;;;;;5066645;28;20036;-59
2021/01/22 11:56:19;;;;;;;6.97;4.60;;;4.90;99.90;;;;;;5056433;28;20021;-59
2021/01/22 11:58:45;;;;;;;10.32;4.10;;;4.90;99.90;;;;;;5060382;28;20039;-59
2021/01/22 12:01:11;;;;;;;7.30;4.10;;;5.00;99.90;;;;;;5061711;28;20419;-57
2021/01/22 12:03:36;;;;;;;6.65;4.03;;;5.00;99.90;;;;;;5053335;28;20143;-58
2021/01/22 12:06:02;;;;;;;6.55;3.78;;;5.10;99.90;;;;;;5048988;28;20029;-59
2021/01/22 12:08:27;;;;;;;7.47;4.20;;;5.20;99.90;;;;;;5055302;28;20033;-58
2021/01/22 12:10:53;;;;;;;7.72;4.00;;;5.20;99.90;;;;;;5057482;28;20426;-60
2021/01/22 12:13:19;;;;;;;8.00;4.28;;;5.20;99.90;;;;;;5062693;28;20026;-59
2021/01/22 12:15:46;;;;;;;11.98;4.40;;;5.30;99.90;;;;;;5068471;28;20111;-59
2021/01/22 12:18:11;;;;;;;10.57;4.78;;;5.30;99.90;;;;;;5060896;28;20021;-58
2021/01/22 12:20:37;;;;;;;6.20;3.83;;;5.40;99.90;;;;;;5063430;28;20514;-60
2021/01/22 12:23:03;;;;;;;9.15;4.53;;;5.50;99.90;;;;;;5067393;28;20513;-60
2021/01/22 12:25:29;;;;;;;13.75;4.80;;;5.50;99.90;;;;;;5068820;28;20069;-58
2021/01/22 12:27:54;;;;;;;7.68;4.28;;;5.60;99.90;;;;;;5068689;28;20016;-54
2021/01/22 12:30:20;;;;;;;5.60;4.30;;;5.60;99.90;;;;;;5069051;28;20035;-60
2021/01/22 12:32:46;;;;;;;9.50;4.38;;;5.50;99.90;;;;;;5067267;28;20470;-58
2021/01/22 12:35:12;;;;;;;6.78;4.35;;;5.50;99.90;;;;;;5067689;28;20024;-56
2021/01/22 12:37:38;;;;;;;9.85;4.78;;;5.50;99.90;;;;;;5065815;28;20020;-58
2021/01/22 12:40:04;;;;;;;7.75;4.43;;;5.50;99.90;;;;;;5068656;28;20608;-58
2021/01/22 12:42:29;;;;;;;6.55;4.00;;;5.40;99.90;;;;;;5067134;28;20021;-58
2021/01/22 12:44:55;;;;;;;9.98;4.60;;;5.40;99.90;;;;;;5054520;28;20025;-60
2021/01/22 12:47:20;;;;;;;8.88;4.70;;;5.40;99.90;;;;;;5060398;28;20428;-61
2021/01/22 12:49:46;;;;;;;7.72;3.80;;;5.50;99.90;;;;;;5068227;28;20094;-59
2021/01/22 12:52:12;;;;;;;9.23;4.88;;;5.50;99.90;;;;;;5067117;28;20020;-59
2021/01/22 12:54:37;;;;;;;7.97;5.05;;;5.40;99.90;;;;;;5068489;28;20509;-59
2021/01/22 12:57:03;;;;;;;9.50;4.60;;;5.40;99.90;;;;;;5068128;28;20610;-60